Dornum — V2OZ — position and weather

sailwx.info

Track history (hours):
 
Tides and Currents Weather Stations Pressure Air Temp Water Temp Dewpoint Dewpoint Depression Visibility Wind Speed Wind Dir Waves Ship Positions

Dornum

Last reported at 2018-Jan-19 08:58 UTC. Time now 2018-Jan-19 09:18 UTC.
Position N 44°19' E 008°30'.

MMSI: 302961841.

Date/timePositionNaut miles runAvg speedWind from/ knotsBaromVisibWave heightAir tempDewpointWater temp
2018-Jan-19 08:58N 44°19' E 008°30'0 0.0
2018-Jan-19 08:28N 44°19' E 008°30'0 0.0
2018-Jan-19 07:57N 44°19' E 008°30'0 0.0
2018-Jan-19 07:27N 44°19' E 008°30'0 0.0
2018-Jan-19 06:57N 44°19' E 008°30'0 0.0
2018-Jan-19 06:30N 44°19' E 008°30'0 0.0
2018-Jan-19 05:57N 44°19' E 008°30'0 0.0
2018-Jan-19 05:30N 44°19' E 008°30'0 0.1
2018-Jan-19 05:00N 44°19' E 008°30'1 1.7
2018-Jan-19 04:29N 44°18' E 008°30'0 0.1
2018-Jan-19 03:56N 44°18' E 008°30'0 0.0
2018-Jan-19 03:26N 44°18' E 008°30'0 0.0
2018-Jan-19 02:56N 44°18' E 008°30'0 0.0
2018-Jan-19 02:29N 44°18' E 008°30'0 0.0
2018-Jan-19 01:56N 44°18' E 008°30'0 0.0
2018-Jan-19 01:29N 44°18' E 008°30'0 0.0
2018-Jan-19 00:56N 44°18' E 008°30'0 0.3
2018-Jan-19 00:31N 44°18' E 008°30'2 4.5
2018-Jan-19 00:00N 44°17' E 008°32'3 7.0
2018-Jan-18 23:30N 44°13' E 008°34'4 8.9
2018-Jan-18 23:00N 44°10' E 008°30'4 8.8
2018-Jan-18 22:30N 44°06' E 008°27'4 8.6
2018-Jan-18 22:00N 44°02' E 008°25'56 7.5
2018-Jan-18 14:32N 43°25' E 007°26'0 8.0
2018-Jan-18 14:30N 43°25' E 007°25'5 8.3
2018-Jan-18 13:55N 43°22' E 007°20'4 8.5
2018-Jan-18 13:30N 43°20' E 007°16'4 8.7
2018-Jan-18 13:00N 43°18' E 007°11'4 8.9
2018-Jan-18 12:30N 43°15' E 007°06'87 8.3
2018-Jan-18 01:59N 43°12' E 005°06'5 9.4
2018-Jan-18 01:29N 43°16' E 005°02'5 9.7
2018-Jan-18 01:00N 43°19' E 004°59'5 5.1
2018-Jan-18 00:00N 43°24' E 005°01'0 0.2
2018-Jan-17 23:57N 43°24' E 005°01'  
2018-Jan-10 15:06N 38°46' E 015°04'3 7.8
2018-Jan-10 14:42N 38°44' E 015°08'3 7.8
2018-Jan-10 14:19N 38°43' E 015°11'3 8.0
2018-Jan-10 13:59N 38°41' E 015°14'4 7.9
2018-Jan-10 13:30N 38°38' E 015°17'4 8.2
2018-Jan-10 12:58N 38°35' E 015°21'4 8.2
2018-Jan-10 12:30N 38°32' E 015°24'4 8.0
2018-Jan-10 11:59N 38°29' E 015°27'4 8.0
2018-Jan-10 11:30N 38°26' E 015°31'4 8.3
2018-Jan-10 11:01N 38°23' E 015°34'4 8.1
2018-Jan-10 10:30N 38°20' E 015°38'4 8.0
2018-Jan-10 10:00N 38°17' E 015°41'3 6.7
2018-Jan-10 09:30N 38°15' E 015°39'4 7.9
2018-Jan-10 09:00N 38°11' E 015°37'4 7.9
2018-Jan-10 08:29N 38°07' E 015°36'4 8.0
2018-Jan-10 08:01N 38°03' E 015°36'4 7.7
2018-Jan-10 07:31N 37°59' E 015°35'4 7.8
2018-Jan-10 07:00N 37°56' E 015°37'4 7.7
2018-Jan-10 06:30N 37°52' E 015°39'3 6.5
2018-Jan-10 06:01N 37°50' E 015°42'5 8.4
2018-Jan-10 05:28N 37°50' E 015°48'4 8.7
2018-Jan-10 04:57N 37°50' E 015°53'  
Track history (hours):
 
Tides and Currents Weather Stations Pressure Air Temp Water Temp Dewpoint Dewpoint Depression Visibility Wind Speed Wind Dir Waves Ship Positions

Dornum

Last reported at 2018-Jan-19 08:58 UTC. Time now 2018-Jan-19 09:18 UTC.
Position N 44°19' E 008°30'.

MMSI: 302961841.

Date/timePositionNaut miles runAvg speedWind from/ knotsBaromVisibWave heightAir tempDewpointWater temp
2018-Jan-19 08:58N 44°19' E 008°30'0 0.0
2018-Jan-19 08:28N 44°19' E 008°30'0 0.0
2018-Jan-19 07:57N 44°19' E 008°30'0 0.0
2018-Jan-19 07:27N 44°19' E 008°30'0 0.0
2018-Jan-19 06:57N 44°19' E 008°30'0 0.0
2018-Jan-19 06:30N 44°19' E 008°30'0 0.0
2018-Jan-19 05:57N 44°19' E 008°30'0 0.0
2018-Jan-19 05:30N 44°19' E 008°30'0 0.1
2018-Jan-19 05:00N 44°19' E 008°30'1 1.7
2018-Jan-19 04:29N 44°18' E 008°30'0 0.1
2018-Jan-19 03:56N 44°18' E 008°30'0 0.0
2018-Jan-19 03:26N 44°18' E 008°30'0 0.0
2018-Jan-19 02:56N 44°18' E 008°30'0 0.0
2018-Jan-19 02:29N 44°18' E 008°30'0 0.0
2018-Jan-19 01:56N 44°18' E 008°30'0 0.0
2018-Jan-19 01:29N 44°18' E 008°30'0 0.0
2018-Jan-19 00:56N 44°18' E 008°30'0 0.3
2018-Jan-19 00:31N 44°18' E 008°30'2 4.5
2018-Jan-19 00:00N 44°17' E 008°32'3 7.0
2018-Jan-18 23:30N 44°13' E 008°34'4 8.9
2018-Jan-18 23:00N 44°10' E 008°30'4 8.8
2018-Jan-18 22:30N 44°06' E 008°27'4 8.6
2018-Jan-18 22:00N 44°02' E 008°25'56 7.5
2018-Jan-18 14:32N 43°25' E 007°26'0 8.0
2018-Jan-18 14:30N 43°25' E 007°25'5 8.3
2018-Jan-18 13:55N 43°22' E 007°20'4 8.5
2018-Jan-18 13:30N 43°20' E 007°16'4 8.7
2018-Jan-18 13:00N 43°18' E 007°11'4 8.9
2018-Jan-18 12:30N 43°15' E 007°06'87 8.3
2018-Jan-18 01:59N 43°12' E 005°06'5 9.4
2018-Jan-18 01:29N 43°16' E 005°02'5 9.7
2018-Jan-18 01:00N 43°19' E 004°59'5 5.1
2018-Jan-18 00:00N 43°24' E 005°01'0 0.2
2018-Jan-17 23:57N 43°24' E 005°01'  
2018-Jan-10 15:06N 38°46' E 015°04'3 7.8
2018-Jan-10 14:42N 38°44' E 015°08'3 7.8
2018-Jan-10 14:19N 38°43' E 015°11'3 8.0
2018-Jan-10 13:59N 38°41' E 015°14'4 7.9
2018-Jan-10 13:30N 38°38' E 015°17'4 8.2
2018-Jan-10 12:58N 38°35' E 015°21'4 8.2
2018-Jan-10 12:30N 38°32' E 015°24'4 8.0
2018-Jan-10 11:59N 38°29' E 015°27'4 8.0
2018-Jan-10 11:30N 38°26' E 015°31'4 8.3
2018-Jan-10 11:01N 38°23' E 015°34'4 8.1
2018-Jan-10 10:30N 38°20' E 015°38'4 8.0
2018-Jan-10 10:00N 38°17' E 015°41'3 6.7
2018-Jan-10 09:30N 38°15' E 015°39'4 7.9
2018-Jan-10 09:00N 38°11' E 015°37'4 7.9
2018-Jan-10 08:29N 38°07' E 015°36'4 8.0
2018-Jan-10 08:01N 38°03' E 015°36'4 7.7
2018-Jan-10 07:31N 37°59' E 015°35'4 7.8
2018-Jan-10 07:00N 37°56' E 015°37'4 7.7
2018-Jan-10 06:30N 37°52' E 015°39'3 6.5
2018-Jan-10 06:01N 37°50' E 015°42'5 8.4
2018-Jan-10 05:28N 37°50' E 015°48'4 8.7
2018-Jan-10 04:57N 37°50' E 015°53'  

Dump ship's entire track history